Time;durP1;ratioP1;P1;durP2;ratioP2;P2;SDS_P1;SDS_P2;PMS_P1;PMS_P2;Temp;Humidity;BMP_temperature;BMP_pressure;BME280_temperature;BME280_humidity;BME280_pressure;Samples;Min_cycle;Max_cycle;Signal;HPM_P1;HPM_P2
2021/06/19 16:41:44;;;;;;;3.70;2.90;;;;;;;26.28;39.66;100046.00;5146169;27;162984;-52
2021/06/19 16:44:10;;;;;;;6.53;2.97;;;;;;;26.47;39.30;100044.16;5139868;27;20035;-57
2021/06/19 16:46:35;;;;;;;7.80;3.08;;;;;;;26.56;39.04;100053.09;5131570;27;20096;-68
2021/06/19 16:49:02;;;;;;;6.40;3.15;;;;;;;26.58;39.32;100052.97;5136739;27;20051;-63
2021/06/19 16:51:28;;;;;;;9.48;3.20;;;;;;;26.55;39.56;100052.25;5119500;27;20043;-60
2021/06/19 16:53:54;;;;;;;4.75;2.88;;;;;;;26.58;39.29;100050.28;5122582;27;20062;-60
2021/06/19 16:56:20;;;;;;;6.95;3.00;;;;;;;26.60;39.45;100045.63;5126345;27;20421;-60
2021/06/19 16:58:46;;;;;;;3.78;2.95;;;;;;;26.57;39.67;100038.78;5128558;27;20043;-57
2021/06/19 17:01:11;;;;;;;6.60;3.20;;;;;;;26.59;39.31;100052.78;5126587;27;20043;-58
2021/06/19 17:03:37;;;;;;;10.13;3.55;;;;;;;26.61;39.45;100037.50;5120884;27;20054;-58
2021/06/19 17:06:03;;;;;;;3.50;2.75;;;;;;;26.66;39.74;100043.22;5128623;27;20035;-58
2021/06/19 17:08:28;;;;;;;3.72;2.88;;;;;;;26.65;39.59;100041.53;5132301;27;20426;-59
2021/06/19 17:10:55;;;;;;;8.90;3.35;;;;;;;26.65;40.08;100038.03;5128151;27;20044;-57
2021/06/19 17:13:22;;;;;;;6.80;2.90;;;;;;;26.64;39.96;100039.03;5123189;27;20861;-57
2021/06/19 17:15:48;;;;;;;7.35;3.40;;;;;;;26.60;40.55;100042.97;5123256;27;20039;-63
2021/06/19 17:18:14;;;;;;;12.82;3.35;;;;;;;26.53;40.35;100042.72;5127260;27;20043;-54
2021/06/19 17:20:39;;;;;;;6.47;3.10;;;;;;;26.51;41.21;100044.69;5124856;27;20082;-61
2021/06/19 17:23:05;;;;;;;4.85;3.25;;;;;;;26.28;42.77;100046.00;5122194;27;20096;-61
2021/06/19 17:25:31;;;;;;;5.50;3.13;;;;;;;26.04;44.46;100033.13;5122774;27;20039;-64
2021/06/19 17:27:56;;;;;;;6.30;3.42;;;;;;;25.87;43.21;100037.34;5127212;27;20047;-57
2021/06/19 17:30:26;;;;;;;6.45;3.40;;;;;;;25.86;43.32;100048.13;5124074;27;20123;-54
2021/06/19 17:32:52;;;;;;;10.27;3.80;;;;;;;25.83;43.35;100043.94;5117199;27;20050;-58
2021/06/19 17:35:17;;;;;;;11.40;3.50;;;;;;;25.87;42.86;100039.19;5124106;27;20401;-62
2021/06/19 17:37:43;;;;;;;5.60;3.45;;;;;;;25.93;42.96;100034.13;5127859;27;20071;-63
2021/06/19 17:40:09;;;;;;;12.27;3.53;;;;;;;25.97;42.52;100037.34;5124576;27;20104;-63
2021/06/19 17:42:35;;;;;;;7.25;3.30;;;;;;;26.02;42.33;100038.59;5127210;27;20047;-59
2021/06/19 17:45:01;;;;;;;7.32;3.67;;;;;;;26.04;42.36;100044.63;5125953;27;20631;-59
2021/06/19 17:47:29;;;;;;;10.23;3.90;;;;;;;26.04;42.46;100046.47;5136908;27;20035;-65
2021/06/19 17:49:55;;;;;;;12.32;4.03;;;;;;;26.04;42.57;100046.47;5116640;27;20047;-55
2021/06/19 17:52:22;;;;;;;5.30;3.20;;;;;;;26.02;42.67;100046.59;5134643;27;20625;-63
2021/06/19 17:54:52;;;;;;;9.10;3.70;;;;;;;26.00;42.99;100045.91;5124521;27;20044;-71
2021/06/19 17:57:23;;;;;;;8.43;3.65;;;;;;;25.96;43.06;100051.66;5112701;27;20046;-59
2021/06/19 17:59:49;;;;;;;8.07;3.47;;;;;;;25.94;43.31;100053.63;5111800;27;20054;-61
2021/06/19 18:02:16;;;;;;;7.22;3.45;;;;;;;25.90;43.49;100052.22;5111774;27;20047;-58
2021/06/19 18:04:41;;;;;;;3.88;3.50;;;;;;;25.90;43.59;100053.06;5114678;27;20035;-58
2021/06/19 18:07:07;;;;;;;7.38;4.03;;;;;;;25.89;43.75;100051.38;5110285;27;20138;-59
2021/06/19 18:09:35;;;;;;;8.57;4.22;;;;;;;25.86;44.12;100058.81;5112353;27;20604;-55
2021/06/19 18:12:01;;;;;;;6.05;3.60;;;;;;;25.83;44.26;100059.09;5114303;27;20114;-51
2021/06/19 18:14:26;;;;;;;8.75;3.80;;;;;;;25.76;44.50;100052.63;5111369;27;20040;-54
2021/06/19 18:16:52;;;;;;;9.52;3.83;;;;;;;25.71;44.39;100061.06;5119811;27;20036;-62
2021/06/19 18:19:18;;;;;;;6.47;3.90;;;;;;;25.71;44.79;100053.91;5068732;27;20061;-60
2021/06/19 18:21:44;;;;;;;9.23;3.65;;;;;;;25.65;45.07;100054.47;5038932;28;20065;-62
2021/06/19 18:24:10;;;;;;;3.72;3.10;;;;;;;25.63;44.97;100044.94;5051715;28;60451;-61
2021/06/19 18:26:36;;;;;;;10.25;4.22;;;;;;;25.58;45.17;100044.53;5055522;28;20049;-63
2021/06/19 18:29:01;;;;;;;8.23;3.70;;;;;;;25.58;45.15;100058.69;5065813;28;20040;-62
2021/06/19 18:31:27;;;;;;;5.25;3.58;;;;;;;25.58;45.38;100055.16;5049016;28;20926;-59
2021/06/19 18:33:53;;;;;;;7.60;3.88;;;;;;;25.56;45.37;100062.44;5043630;28;20041;-59
2021/06/19 18:36:19;;;;;;;11.25;3.60;;;;;;;25.54;45.39;100056.41;5039604;28;20060;-59
2021/06/19 18:38:46;;;;;;;7.05;3.63;;;;;;;25.49;45.55;100070.09;5051797;28;20049;-61
2021/06/19 18:41:13;;;;;;;7.65;3.53;;;;;;;25.46;45.87;100062.41;5049844;28;20478;-60
2021/06/19 18:43:41;;;;;;;6.22;3.45;;;;;;;25.44;46.06;100058.19;5051743;28;20094;-60
2021/06/19 18:46:06;;;;;;;7.03;3.70;;;;;;;25.40;46.11;100057.63;5071308;28;20497;-61
2021/06/19 18:48:32;;;;;;;14.27;4.22;;;;;;;25.35;46.25;100065.19;5052159;28;20045;-60
2021/06/19 18:50:58;;;;;;;5.00;3.55;;;;;;;25.34;46.23;100055.50;5048040;28;20045;-61
2021/06/19 18:53:23;;;;;;;5.68;3.78;;;;;;;25.29;46.06;100057.75;5028361;28;20041;-59
2021/06/19 18:55:49;;;;;;;8.63;4.00;;;;;;;25.25;46.02;100051.88;5031472;28;20052;-60
2021/06/19 18:58:15;;;;;;;5.70;3.30;;;;;;;25.20;46.28;100054.09;5052166;28;20040;-63
2021/06/19 19:00:41;;;;;;;14.93;4.07;;;;;;;25.12;46.33;100045.94;5047293;28;20502;-61
2021/06/19 19:03:09;;;;;;;9.55;4.55;;;;;;;25.06;46.53;100048.31;5047029;28;20045;-61
2021/06/19 19:05:35;;;;;;;8.18;4.28;;;;;;;25.02;46.95;100054.91;4958475;28;20046;-62
2021/06/19 19:08:02;;;;;;;7.80;3.67;;;;;;;25.01;47.06;100048.75;5059001;28;20049;-57
2021/06/19 19:10:28;;;;;;;10.75;3.85;;;;;;;25.02;47.24;100045.06;5054841;28;20067;-58
2021/06/19 19:12:53;;;;;;;9.00;3.78;;;;;;;25.00;47.39;100046.19;5033795;28;20143;-63
2021/06/19 19:15:21;;;;;;;8.43;4.40;;;;;;;24.96;47.48;100050.13;5039202;28;20127;-65
2021/06/19 19:17:47;;;;;;;13.65;3.97;;;;;;;24.89;47.94;100045.34;5051297;28;20068;-66
2021/06/19 19:20:14;;;;;;;8.93;4.47;;;;;;;24.85;47.77;100051.88;5050775;28;20029;-62
2021/06/19 19:22:40;;;;;;;10.30;4.40;;;;;;;24.82;48.18;100048.63;5068433;28;20047;-64
2021/06/19 19:25:07;;;;;;;10.60;4.55;;;;;;;24.77;48.46;100051.69;5044915;28;20037;-63
2021/06/19 19:27:35;;;;;;;7.85;4.25;;;;;;;24.69;48.71;100048.88;5042231;28;20068;-66
2021/06/19 19:30:01;;;;;;;8.07;4.60;;;;;;;24.63;49.00;100053.88;5037444;28;20773;-66
2021/06/19 19:32:28;;;;;;;7.43;4.55;;;;;;;24.55;49.19;100059.03;5050063;28;20057;-68
2021/06/19 19:34:53;;;;;;;9.45;4.90;;;;;;;24.49;49.41;100060.38;5024931;28;20084;-70
2021/06/19 19:37:22;;;;;;;8.93;5.70;;;;;;;24.47;49.58;100062.31;5026614;28;20515;-70
2021/06/19 19:39:48;;;;;;;9.43;6.57;;;;;;;24.40;49.88;100058.50;5035909;28;20080;-67
2021/06/19 19:42:14;;;;;;;11.20;6.13;;;;;;;24.37;49.82;100059.63;5029452;28;20069;-69
2021/06/19 19:44:40;;;;;;;17.63;5.47;;;;;;;24.36;49.82;100057.09;5036337;28;20033;-67
2021/06/19 19:47:06;;;;;;;9.80;5.70;;;;;;;24.36;49.70;100059.75;5013215;28;20041;-68
2021/06/19 19:49:33;;;;;;;10.63;5.57;;;;;;;24.34;49.97;100051.88;5015252;28;27773;-70
2021/06/19 19:52:02;;;;;;;11.27;5.97;;;;;;;24.32;50.07;100056.50;5020649;28;20065;-68
2021/06/19 19:54:28;;;;;;;12.15;6.05;;;;;;;24.28;50.19;100060.41;5023424;28;20057;-66
2021/06/19 19:56:54;;;;;;;11.50;5.65;;;;;;;24.25;50.37;100059.81;5029595;28;20045;-67
2021/06/19 19:59:20;;;;;;;10.07;5.68;;;;;;;24.21;50.54;100061.91;5029004;28;20132;-66
2021/06/19 20:01:48;;;;;;;10.15;5.70;;;;;;;24.18;50.65;100058.66;5021225;28;20045;-66
2021/06/19 20:04:13;;;;;;;12.35;5.35;;;;;;;24.15;50.80;100064.19;5027506;28;20477;-68
2021/06/19 20:06:39;;;;;;;11.52;5.88;;;;;;;24.12;50.70;100054.69;5023819;28;20226;-65
2021/06/19 20:12:01;;;;;;;10.10;5.90;;;;;;;24.08;51.10;100064.69;5053442;23;20521;-65
2021/06/19 20:14:26;;;;;;;9.90;5.50;;;;;;;24.02;51.31;100059.09;4865724;29;20054;-66
2021/06/19 20:16:53;;;;;;;12.57;5.93;;;;;;;24.01;51.14;100057.38;4854728;29;20045;-61
2021/06/19 20:19:18;;;;;;;12.38;6.43;;;;;;;23.97;51.50;100058.63;4859403;29;20466;-68
2021/06/19 20:21:44;;;;;;;14.90;6.07;;;;;;;23.95;51.45;100063.22;4854158;29;20052;-66
2021/06/19 20:24:10;;;;;;;10.52;6.00;;;;;;;23.92;51.71;100068.75;4850411;29;20489;-66
2021/06/19 20:26:36;;;;;;;19.95;6.07;;;;;;;23.87;51.91;100058.53;4848864;29;20455;-66
2021/06/19 20:29:03;;;;;;;17.15;6.10;;;;;;;23.84;51.85;100064.09;4848127;29;20045;-65
2021/06/19 20:31:29;;;;;;;15.10;6.25;;;;;;;23.84;52.11;100066.75;4861544;29;20725;-66
2021/06/19 20:33:55;;;;;;;11.95;5.80;;;;;;;23.83;52.11;100061.56;4851220;29;20132;-66
2021/06/19 20:36:22;;;;;;;12.52;5.53;;;;;;;23.79;52.27;100054.84;4848827;29;20049;-67
2021/06/19 20:38:47;;;;;;;10.10;5.45;;;;;;;23.74;52.58;100065.84;4850451;29;20049;-68
2021/06/19 20:41:13;;;;;;;12.18;7.05;;;;;;;23.67;52.76;100061.16;5320770;23;20062;-65
2021/06/19 20:43:39;;;;;;;9.80;5.53;;;;;;;23.69;52.67;100062.72;4842983;29;20046;-65
2021/06/19 20:46:05;;;;;;;10.38;5.95;;;;;;;23.64;52.83;100062.25;4846189;29;20050;-67
2021/06/19 20:48:33;;;;;;;11.80;5.55;;;;;;;23.62;52.79;100070.34;4844983;29;20034;-59
2021/06/19 20:50:59;;;;;;;16.23;6.18;;;;;;;23.59;53.04;100072.41;4859708;29;20052;-66
2021/06/19 20:53:25;;;;;;;9.90;6.10;;;;;;;23.57;53.07;100067.22;4845877;29;20038;-63
2021/06/19 20:55:51;;;;;;;11.00;6.00;;;;;;;23.54;53.16;100070.16;4846778;29;20105;-64
2021/06/19 20:58:16;;;;;;;17.40;6.63;;;;;;;23.50;53.38;100073.19;4863640;29;20055;-61
2021/06/19 21:00:42;;;;;;;14.23;6.50;;;;;;;23.44;53.58;100069.19;4818347;29;20106;-56
2021/06/19 21:03:08;;;;;;;12.43;6.32;;;;;;;23.36;54.08;100079.56;4848658;29;20037;-61
2021/06/19 21:05:37;;;;;;;14.00;6.78;;;;;;;23.30;54.10;100071.25;4849155;29;20041;-59
2021/06/19 21:08:03;;;;;;;9.65;5.80;;;;;;;23.23;54.42;100074.41;4851172;29;20065;-62
2021/06/19 21:10:29;;;;;;;11.48;6.10;;;;;;;23.20;54.49;100082.59;4865436;29;20049;-63
2021/06/19 21:12:55;;;;;;;10.02;6.15;;;;;;;23.16;54.56;100073.22;4863991;29;20056;-61
2021/06/19 21:15:21;;;;;;;14.05;6.10;;;;;;;23.15;54.69;100082.13;4868703;29;20505;-62
2021/06/19 21:17:48;;;;;;;13.20;6.40;;;;;;;23.13;54.84;100076.09;4869527;29;20057;-61
2021/06/19 21:20:15;;;;;;;9.02;6.45;;;;;;;23.09;54.89;100079.97;4866514;29;20135;-61
2021/06/19 21:22:42;;;;;;;12.07;5.60;;;;;;;23.06;55.09;100076.72;4863285;29;20435;-62
2021/06/19 21:25:08;;;;;;;15.13;6.78;;;;;;;23.02;55.23;100077.94;4858088;29;20570;-62
2021/06/19 21:27:36;;;;;;;11.98;5.93;;;;;;;23.00;55.39;100082.50;4859450;29;20134;-60
2021/06/19 21:30:03;;;;;;;11.45;6.93;;;;;;;22.95;55.31;100082.03;4860898;29;20061;-62
2021/06/19 21:32:29;;;;;;;14.63;6.35;;;;;;;22.92;55.59;100076.97;4872276;29;20068;-61
2021/06/19 21:34:54;;;;;;;15.00;6.60;;;;;;;22.87;55.65;100074.69;4860151;29;20513;-61
2021/06/19 21:37:20;;;;;;;16.70;7.10;;;;;;;22.85;55.77;100073.97;4872235;29;20416;-61
2021/06/19 21:39:48;;;;;;;13.02;6.55;;;;;;;22.82;55.75;100076.03;4865997;29;20611;-60
2021/06/19 21:42:16;;;;;;;10.73;6.03;;;;;;;22.79;56.03;100077.94;4858895;29;20061;-63
2021/06/19 21:44:45;;;;;;;13.40;6.30;;;;;;;22.77;56.03;100079.00;4859714;29;20592;-62
2021/06/19 21:47:12;;;;;;;;;;;;;;;22.77;55.95;100087.81;4860526;29;20429;-61
2021/06/19 21:49:38;;;;;;;13.35;6.70;;;;;;;22.74;55.89;100085.41;4860159;29;20312;-61
2021/06/19 21:52:04;;;;;;;15.55;6.15;;;;;;;22.71;56.07;100085.66;4868713;29;20052;-62
2021/06/19 21:54:30;;;;;;;13.65;6.05;;;;;;;22.66;56.18;100086.94;4873363;29;20795;-61
2021/06/19 21:56:58;;;;;;;10.90;5.72;;;;;;;22.59;56.84;100083.06;4859016;29;20046;-60
2021/06/19 21:59:27;;;;;;;12.73;6.07;;;;;;;22.55;56.79;100084.28;4867390;29;20538;-62
2021/06/19 22:01:54;;;;;;;14.70;6.05;;;;;;;22.49;56.89;100082.09;4860809;29;20153;-61
2021/06/19 22:04:19;;;;;;;14.18;5.60;;;;;;;22.45;57.42;100083.31;4859108;29;20109;-62
2021/06/19 22:06:45;;;;;;;10.05;5.85;;;;;;;22.42;57.04;100089.66;4860384;29;20048;-60
2021/06/19 22:09:11;;;;;;;11.50;5.90;;;;;;;22.39;57.18;100088.13;4867822;29;20044;-61
2021/06/19 22:14:31;;;;;;;9.13;5.43;;;;;;;22.33;57.22;100090.38;4931956;23;20057;-60
2021/06/19 22:16:57;;;;;;;9.20;5.60;;;;;;;22.32;57.16;100083.41;4865863;29;20520;-62
2021/06/19 22:19:23;;;;;;;8.25;5.55;;;;;;;22.29;57.37;100081.00;4873665;29;20822;-61
2021/06/19 22:21:50;;;;;;;13.55;6.78;;;;;;;22.24;57.78;100083.97;4858026;29;20516;-62
2021/06/19 22:24:16;;;;;;;20.10;6.38;;;;;;;22.19;58.09;100087.97;4856289;29;20049;-61
2021/06/19 22:26:42;;;;;;;11.63;6.10;;;;;;;22.10;58.63;100084.19;4855868;29;20042;-63
2021/06/19 22:29:08;;;;;;;8.70;6.00;;;;;;;22.08;58.53;100094.06;4854850;29;20068;-58
2021/06/19 22:31:35;;;;;;;9.60;6.35;;;;;;;22.06;58.60;100092.47;4855048;29;20529;-60
2021/06/19 22:34:00;;;;;;;13.35;6.85;;;;;;;22.04;59.17;100089.94;5329253;23;20066;-61
2021/06/19 22:36:26;;;;;;;12.07;5.75;;;;;;;22.00;59.41;100091.13;4837049;29;20084;-62
2021/06/19 22:38:52;;;;;;;10.30;6.50;;;;;;;21.93;60.16;100090.69;4842137;29;20069;-61
2021/06/19 22:41:17;;;;;;;12.73;6.10;;;;;;;21.88;60.56;100090.19;4842098;29;20085;-62
2021/06/19 22:43:43;;;;;;;9.38;6.18;;;;;;;21.78;61.04;100086.56;4841028;29;20038;-61
2021/06/19 22:46:09;;;;;;;13.98;6.75;;;;;;;21.79;61.29;100096.19;4836286;29;20528;-59
2021/06/19 22:48:35;;;;;;;10.60;6.43;;;;;;;21.71;61.84;100092.44;4848467;29;20049;-61
2021/06/19 22:51:01;;;;;;;9.65;6.38;;;;;;;21.67;61.34;100094.44;4844486;29;20074;-61
2021/06/19 22:53:27;;;;;;;11.00;7.05;;;;;;;21.63;61.97;100100.06;4845951;29;20077;-61
2021/06/19 22:55:52;;;;;;;9.20;6.53;;;;;;;21.60;61.15;100098.50;4847431;29;20053;-61
2021/06/19 22:58:18;;;;;;;15.02;6.43;;;;;;;21.59;60.97;100095.97;4848573;29;20050;-61
2021/06/19 23:00:44;;;;;;;13.02;7.22;;;;;;;21.57;61.36;100098.72;4849061;29;20053;-60
2021/06/19 23:03:09;;;;;;;13.18;7.43;;;;;;;21.53;61.94;100100.75;4843898;29;20144;-59
2021/06/19 23:05:35;;;;;;;10.00;6.03;;;;;;;21.51;61.68;100100.00;4846981;29;20571;-62
2021/06/19 23:08:01;;;;;;;12.05;7.07;;;;;;;21.51;62.15;100101.84;4840604;29;20073;-64
2021/06/19 23:10:27;;;;;;;11.85;6.90;;;;;;;21.47;62.53;100098.53;4840249;29;20474;-63
2021/06/19 23:12:53;;;;;;;13.60;7.35;;;;;;;21.46;62.49;100101.28;4837755;29;20414;-62
2021/06/19 23:15:19;;;;;;;11.73;7.13;;;;;;;21.42;63.01;100099.84;4839574;29;20049;-62
2021/06/19 23:17:45;;;;;;;14.68;6.63;;;;;;;21.38;62.95;100101.88;4839756;29;20061;-61
2021/06/19 23:20:14;;;;;;;12.15;6.82;;;;;;;21.38;62.73;100101.88;4837881;29;20077;-60
2021/06/19 23:22:40;;;;;;;11.32;6.65;;;;;;;21.32;62.90;100097.00;4839993;29;20050;-62
2021/06/19 23:25:07;;;;;;;16.25;6.80;;;;;;;21.30;63.23;100092.81;4838149;29;20475;-61
2021/06/19 23:27:32;;;;;;;11.75;6.60;;;;;;;21.32;62.60;100106.75;4839637;29;20387;-62
2021/06/19 23:29:58;;;;;;;15.98;6.88;;;;;;;21.29;62.29;100099.91;4839842;29;20061;-63
2021/06/19 23:32:24;;;;;;;15.15;7.28;;;;;;;21.28;62.56;100106.13;4837799;29;20129;-62
2021/06/19 23:34:50;;;;;;;15.38;6.80;;;;;;;21.29;62.40;100113.13;4837072;29;20475;-64
2021/06/19 23:37:16;;;;;;;13.60;7.25;;;;;;;21.28;62.59;100100.00;4847924;29;20078;-62
2021/06/19 23:39:41;;;;;;;17.33;7.53;;;;;;;21.27;62.66;100104.44;4839700;29;20042;-63
2021/06/19 23:42:08;;;;;;;15.43;7.72;;;;;;;21.25;63.01;100097.59;4839505;29;20042;-62
2021/06/19 23:44:35;;;;;;;12.65;7.00;;;;;;;21.19;64.33;100101.50;5311245;23;20100;-62
2021/06/19 23:47:01;;;;;;;12.52;7.13;;;;;;;21.12;65.19;100105.50;4831777;29;20053;-63
2021/06/19 23:49:27;;;;;;;14.98;7.45;;;;;;;21.05;65.25;100115.66;4832455;29;20116;-61
2021/06/19 23:51:54;;;;;;;11.77;7.70;;;;;;;21.00;64.68;100112.50;4831334;29;20081;-62
2021/06/19 23:54:29;;;;;;;12.32;7.63;;;;;;;20.66;65.00;100068.25;5273040;23;20055;31
2021/06/19 23:56:55;;;;;;;11.57;7.57;;;;;;;20.93;65.36;100115.69;4830136;29;20668;-62
2021/06/19 23:59:21;;;;;;;11.85;7.18;;;;;;;20.91;65.90;100115.78;4838807;29;20133;-62
